Time;durP1;ratioP1;P1;durP2;ratioP2;P2;SDS_P1;SDS_P2;PMS_P1;PMS_P2;Temp;Humidity;BMP_temperature;BMP_pressure;BME280_temperature;BME280_humidity;BME280_pressure;Samples;Min_cycle;Max_cycle;Signal;HPM_P1;HPM_P2
2022/03/30 00:01:34;;;;;;;77.90;42.00;;;7.80;82.60;;;;;;4934923;29;20438;-68
2022/03/30 00:04:02;;;;;;;77.93;41.13;;;7.80;82.60;;;;;;4939374;29;20047;-68
2022/03/30 00:06:30;;;;;;;72.63;40.13;;;7.70;82.60;;;;;;4953946;28;20055;-68
2022/03/30 00:08:57;;;;;;;70.90;41.15;;;7.60;82.60;;;;;;4952737;29;20043;-68
2022/03/30 00:11:25;;;;;;;71.53;40.63;;;7.60;82.60;;;;;;4954449;29;20043;-68
2022/03/30 00:13:52;;;;;;;73.90;40.15;;;7.50;82.70;;;;;;4937699;29;20054;-68
2022/03/30 00:16:20;;;;;;;73.70;42.28;;;7.60;82.70;;;;;;4952715;29;20054;-68
2022/03/30 00:18:48;;;;;;;73.82;41.13;;;7.50;82.70;;;;;;4947332;29;20047;-68
2022/03/30 00:21:16;;;;;;;73.85;41.08;;;7.50;82.60;;;;;;4953583;29;20051;-68
2022/03/30 00:23:44;;;;;;;73.65;41.42;;;7.50;82.60;;;;;;4954106;29;20055;-68
2022/03/30 00:26:12;;;;;;;80.03;42.88;;;7.50;82.60;;;;;;4939436;29;20413;-68
2022/03/30 00:28:39;;;;;;;82.75;44.85;;;7.50;82.60;;;;;;4952711;29;20048;-68
2022/03/30 00:31:07;;;;;;;80.05;43.92;;;7.50;82.80;;;;;;4934902;29;20043;-68
2022/03/30 00:33:35;;;;;;;78.80;42.35;;;7.50;82.80;;;;;;4934437;29;20051;-68
2022/03/30 00:36:02;;;;;;;73.68;42.35;;;7.40;82.90;;;;;;4934038;29;20040;-68
2022/03/30 00:38:30;;;;;;;76.68;42.42;;;7.30;82.90;;;;;;4940330;29;20055;-68
2022/03/30 00:40:57;;;;;;;84.38;43.08;;;7.30;82.90;;;;;;4949354;29;20050;-68
2022/03/30 00:43:25;;;;;;;80.15;43.63;;;7.20;83.00;;;;;;4950898;28;20520;-68
2022/03/30 00:45:53;;;;;;;78.40;43.78;;;7.20;83.10;;;;;;4950567;29;20051;-68
2022/03/30 00:48:20;;;;;;;86.63;44.10;;;7.10;83.20;;;;;;4952357;29;20058;-68
2022/03/30 00:50:48;;;;;;;89.25;45.33;;;7.00;83.30;;;;;;4951950;29;20043;-68
2022/03/30 00:53:15;;;;;;;86.20;46.17;;;6.90;83.40;;;;;;4951622;29;20051;-68
2022/03/30 00:55:43;;;;;;;80.72;44.22;;;6.90;83.60;;;;;;4938456;29;20091;-68
2022/03/30 00:58:11;;;;;;;86.90;46.38;;;6.80;83.70;;;;;;4934366;29;20481;-68
2022/03/30 01:00:39;;;;;;;81.13;45.25;;;6.80;83.80;;;;;;4934982;29;20055;-68
2022/03/30 01:03:07;;;;;;;90.60;45.53;;;6.80;83.90;;;;;;4936863;29;20051;-68
2022/03/30 01:05:36;;;;;;;80.90;45.03;;;6.80;83.90;;;;;;4939043;29;20051;-68
2022/03/30 01:08:04;;;;;;;82.50;45.20;;;6.80;83.90;;;;;;4934004;29;20040;-68
2022/03/30 01:10:31;;;;;;;82.30;45.00;;;6.90;83.90;;;;;;4934137;29;20048;-68
2022/03/30 01:13:02;;;;;;;82.60;45.05;;;6.90;84.00;;;;;;4946092;29;20050;-69
2022/03/30 01:15:31;;;;;;;84.53;45.80;;;6.90;84.00;;;;;;4945646;29;20043;-68
2022/03/30 01:17:58;;;;;;;85.53;44.47;;;6.90;84.00;;;;;;4951966;29;20493;-68
2022/03/30 01:20:26;;;;;;;83.43;43.45;;;6.90;84.00;;;;;;4953016;29;20051;-68
2022/03/30 01:23:01;;;;;;;79.60;45.17;;;6.90;84.00;;;;;;4949778;29;20408;-69
2022/03/30 01:25:29;;;;;;;78.03;44.15;;;7.00;84.00;;;;;;4952431;29;20055;-68
2022/03/30 01:27:59;;;;;;;91.82;45.42;;;7.00;84.00;;;;;;4940812;29;20044;-68
2022/03/30 01:33:13;;;;;;;84.40;45.25;;;7.00;84.00;;;;;;4939089;29;20048;-68
2022/03/30 01:35:41;;;;;;;78.40;43.47;;;7.00;84.00;;;;;;4941721;29;20071;-68
2022/03/30 01:38:09;;;;;;;79.35;44.85;;;7.00;84.00;;;;;;4950579;29;20060;-68
2022/03/30 01:40:38;;;;;;;84.00;45.78;;;7.00;84.00;;;;;;4952480;29;20051;-68
2022/03/30 01:43:06;;;;;;;86.40;44.40;;;7.10;84.00;;;;;;4944406;29;20044;-68
2022/03/30 01:45:34;;;;;;;84.63;46.17;;;7.10;84.00;;;;;;4942269;29;20524;-68
2022/03/30 01:48:01;;;;;;;81.03;44.33;;;7.10;83.90;;;;;;4942611;29;20055;-68
2022/03/30 01:50:31;;;;;;;84.22;44.85;;;7.20;83.90;;;;;;4945462;28;20051;-68
2022/03/30 01:53:00;;;;;;;79.03;44.45;;;7.20;84.00;;;;;;4956073;29;20047;-68
2022/03/30 01:55:28;;;;;;;81.82;44.35;;;7.20;83.90;;;;;;4944558;29;20063;-68
2022/03/30 01:57:56;;;;;;;78.60;42.65;;;7.20;83.90;;;;;;4944702;29;20051;-68
2022/03/30 02:00:26;;;;;;;74.60;40.80;;;7.20;83.90;;;;;;4956617;29;20063;-68
2022/03/30 02:02:54;;;;;;;77.80;41.08;;;7.20;83.90;;;;;;4941867;29;20039;-68
2022/03/30 02:05:22;;;;;;;69.30;40.05;;;7.10;83.90;;;;;;4945724;29;20519;-68
2022/03/30 02:07:49;;;;;;;74.45;41.30;;;7.10;83.90;;;;;;4956444;29;20051;-68
2022/03/30 02:10:17;;;;;;;74.28;38.63;;;7.10;83.90;;;;;;4954665;29;20059;-68
2022/03/30 02:12:45;;;;;;;70.25;39.20;;;7.10;83.90;;;;;;4949947;29;20050;-68
2022/03/30 02:15:13;;;;;;;72.47;39.63;;;7.10;83.90;;;;;;4942631;29;20501;-68
2022/03/30 02:17:41;;;;;;;66.32;37.38;;;7.00;83.90;;;;;;4956412;29;20055;-68
2022/03/30 02:20:11;;;;;;;66.22;36.50;;;7.00;83.90;;;;;;4951605;29;20494;-69
2022/03/30 02:22:40;;;;;;;67.90;36.20;;;7.00;83.90;;;;;;4955200;29;20055;-68
2022/03/30 02:25:09;;;;;;;56.88;34.22;;;7.00;83.90;;;;;;4954200;29;20073;-68
2022/03/30 02:27:37;;;;;;;60.00;32.58;;;6.90;83.80;;;;;;4946341;29;20044;-68
2022/03/30 02:30:07;;;;;;;64.68;35.33;;;7.00;83.80;;;;;;4949593;29;20054;-68
2022/03/30 02:32:36;;;;;;;65.15;33.75;;;6.90;83.80;;;;;;4942545;29;20055;-68
2022/03/30 02:35:04;;;;;;;59.80;34.80;;;6.90;83.70;;;;;;4955517;29;20405;-68
2022/03/30 02:37:32;;;;;;;60.03;32.78;;;6.80;83.80;;;;;;4953199;29;20059;-68
2022/03/30 02:40:00;;;;;;;71.15;35.42;;;6.80;83.70;;;;;;4944806;29;20074;-68
2022/03/30 02:42:28;;;;;;;64.65;34.75;;;6.80;83.80;;;;;;4938172;29;20050;-68
2022/03/30 02:44:55;;;;;;;64.97;35.03;;;6.70;83.80;;;;;;4955331;29;20047;-68
2022/03/30 02:48:17;;;;;;;68.35;34.70;;;6.70;83.90;;;;;;4954681;29;20047;-68
2022/03/30 02:50:10;;;;;;;62.50;32.08;;;6.70;83.90;;;;;;4953469;29;20050;-68
2022/03/30 02:52:38;;;;;;;60.67;32.80;;;6.70;83.90;;;;;;4951998;29;20523;-68
2022/03/30 02:55:06;;;;;;;56.13;32.15;;;6.60;83.90;;;;;;4948255;28;20070;-68
2022/03/30 02:57:34;;;;;;;54.10;30.75;;;6.60;83.90;;;;;;4950888;29;20055;-68
2022/03/30 03:00:04;;;;;;;61.45;32.58;;;6.50;83.90;;;;;;4953550;29;20062;-68
2022/03/30 03:02:34;;;;;;;61.58;33.47;;;6.50;83.90;;;;;;4937080;29;20048;-68
2022/03/30 03:05:03;;;;;;;62.25;33.28;;;6.50;84.00;;;;;;4946773;29;20048;-68
2022/03/30 03:07:30;;;;;;;66.38;33.33;;;6.40;84.00;;;;;;4935179;29;20144;-68
2022/03/30 03:09:58;;;;;;;61.00;32.92;;;6.40;84.00;;;;;;4955407;29;20074;-68
2022/03/30 03:12:25;;;;;;;65.10;34.72;;;6.40;84.00;;;;;;4955481;29;20047;-68
2022/03/30 03:14:53;;;;;;;65.55;34.85;;;6.40;84.10;;;;;;4954664;29;20504;-68
2022/03/30 03:17:20;;;;;;;67.68;33.80;;;6.40;84.10;;;;;;4970128;28;20047;-68
2022/03/30 03:19:48;;;;;;;66.00;35.72;;;6.40;84.10;;;;;;4953909;29;20074;-68
2022/03/30 03:22:15;;;;;;;63.90;34.88;;;6.40;84.10;;;;;;4954866;29;20047;-68
2022/03/30 03:24:43;;;;;;;72.95;35.95;;;6.40;84.10;;;;;;4935507;29;20058;-68
2022/03/30 03:27:11;;;;;;;72.32;36.65;;;6.40;84.10;;;;;;4935908;29;20405;-68
2022/03/30 03:29:38;;;;;;;66.32;36.00;;;6.40;84.10;;;;;;4950834;29;20050;-68
2022/03/30 03:32:06;;;;;;;71.13;36.45;;;6.30;84.10;;;;;;4918757;29;20051;-68
2022/03/30 03:34:34;;;;;;;69.93;36.25;;;6.30;84.20;;;;;;4936937;29;20059;-68
2022/03/30 03:37:02;;;;;;;69.50;35.38;;;6.30;84.20;;;;;;4946100;29;20047;-68
2022/03/30 03:39:29;;;;;;;77.50;35.85;;;6.30;84.30;;;;;;4953545;29;20062;-68
2022/03/30 03:41:57;;;;;;;69.32;36.25;;;6.30;84.30;;;;;;4951741;29;20055;-68
2022/03/30 03:44:24;;;;;;;70.45;35.63;;;6.20;84.40;;;;;;4935420;29;20052;-68
2022/03/30 03:46:52;;;;;;;73.60;36.38;;;6.20;84.50;;;;;;4934511;29;20395;-68
2022/03/30 03:49:20;;;;;;;75.65;36.10;;;6.20;84.50;;;;;;4934357;29;20055;-67
2022/03/30 03:51:47;;;;;;;67.07;35.67;;;6.10;84.50;;;;;;4944833;29;20540;-68
2022/03/30 03:54:15;;;;;;;78.07;36.80;;;6.10;84.60;;;;;;4952240;28;20525;-68
2022/03/30 03:56:43;;;;;;;78.63;37.83;;;6.00;84.70;;;;;;4954423;28;20058;-68
2022/03/30 03:59:11;;;;;;;72.70;37.00;;;5.90;84.70;;;;;;4953357;29;20043;-68
2022/03/30 04:01:39;;;;;;;75.97;36.58;;;5.90;84.80;;;;;;4942492;29;20051;-68
2022/03/30 04:04:07;;;;;;;72.50;35.78;;;5.80;84.90;;;;;;4935071;29;20107;-68
2022/03/30 04:06:34;;;;;;;78.00;36.67;;;5.80;85.00;;;;;;4935340;29;20548;-68
2022/03/30 04:09:03;;;;;;;69.60;36.10;;;5.80;85.10;;;;;;4935210;29;20048;-68
2022/03/30 04:11:30;;;;;;;64.68;34.28;;;5.80;85.10;;;;;;4936076;29;20055;-68
2022/03/30 04:13:58;;;;;;;67.03;33.65;;;5.80;85.10;;;;;;4934683;29;20398;-68
2022/03/30 04:16:26;;;;;;;77.13;35.90;;;5.80;85.10;;;;;;4934975;29;20052;-69
2022/03/30 04:18:54;;;;;;;69.93;33.75;;;5.70;85.10;;;;;;4935206;29;20051;-69
2022/03/30 04:21:22;;;;;;;71.85;34.00;;;5.70;85.20;;;;;;4935171;29;20414;-68
2022/03/30 04:23:50;;;;;;;70.03;32.97;;;5.70;85.20;;;;;;4951051;29;20400;-68
2022/03/30 04:26:17;;;;;;;65.43;34.08;;;5.70;85.30;;;;;;4952903;29;20058;-68
2022/03/30 04:28:45;;;;;;;63.13;33.17;;;5.70;85.30;;;;;;4953407;29;20046;-68
2022/03/30 04:31:13;;;;;;;66.28;34.08;;;5.70;85.30;;;;;;4946828;29;20449;-68
2022/03/30 04:33:40;;;;;;;64.10;33.03;;;5.70;85.30;;;;;;4949614;29;20043;-68
2022/03/30 04:36:08;;;;;;;63.42;33.97;;;5.80;85.30;;;;;;4954038;29;20062;-68
2022/03/30 04:38:36;;;;;;;59.28;32.78;;;5.80;85.20;;;;;;4954121;29;20382;-68
2022/03/30 04:41:04;;;;;;;66.95;34.35;;;5.80;85.10;;;;;;4954027;29;20043;-68
2022/03/30 04:43:31;;;;;;;61.95;33.78;;;5.90;85.10;;;;;;4937869;29;20052;-68
2022/03/30 04:45:59;;;;;;;63.03;33.08;;;5.90;85.00;;;;;;4942634;29;20070;-68
2022/03/30 04:48:27;;;;;;;66.75;34.65;;;5.90;85.00;;;;;;4949199;29;20497;-68
2022/03/30 04:50:54;;;;;;;65.82;32.63;;;5.90;84.90;;;;;;4954062;29;20051;-68
2022/03/30 04:53:22;;;;;;;65.18;32.83;;;6.00;84.90;;;;;;4940073;29;20046;-68
2022/03/30 04:55:49;;;;;;;63.53;34.45;;;6.00;84.80;;;;;;4934569;29;20067;-68
2022/03/30 04:58:17;;;;;;;65.65;33.90;;;6.00;84.80;;;;;;4946159;29;20055;-68
2022/03/30 05:00:44;;;;;;;64.93;32.25;;;6.00;84.80;;;;;;4949132;29;20482;-68
2022/03/30 05:03:12;;;;;;;68.15;33.58;;;6.00;84.80;;;;;;4941318;29;20050;-68
2022/03/30 05:05:40;;;;;;;60.83;33.17;;;6.00;84.80;;;;;;4946266;29;20055;-68
2022/03/30 05:08:08;;;;;;;64.53;33.08;;;5.90;84.80;;;;;;4949993;29;20400;-68
2022/03/30 05:10:37;;;;;;;71.57;35.03;;;5.80;84.80;;;;;;4947868;29;20501;-68
2022/03/30 05:13:05;;;;;;;60.85;32.13;;;5.80;84.80;;;;;;4939694;29;20486;-68
2022/03/30 05:15:33;;;;;;;68.35;33.70;;;5.70;84.90;;;;;;4934913;29;20052;-68
2022/03/30 05:18:00;;;;;;;64.85;34.15;;;5.70;85.10;;;;;;4935369;29;20066;-67
2022/03/30 05:20:28;;;;;;;72.78;35.58;;;5.60;85.20;;;;;;4937096;29;20413;-68
2022/03/30 05:22:56;;;;;;;68.30;35.15;;;5.60;85.30;;;;;;4942859;29;20477;-69
2022/03/30 05:25:24;;;;;;;73.85;36.28;;;5.60;85.40;;;;;;4952121;28;20058;-68
2022/03/30 05:27:51;;;;;;;70.18;35.53;;;5.60;85.40;;;;;;4957286;29;20485;-68
2022/03/30 05:30:19;;;;;;;77.32;35.97;;;5.60;85.40;;;;;;4956694;29;20062;-68
2022/03/30 05:32:48;;;;;;;75.75;37.42;;;5.60;85.40;;;;;;4945676;29;20521;-68
2022/03/30 05:35:15;;;;;;;81.85;37.58;;;5.70;85.50;;;;;;4938604;29;20066;-68
2022/03/30 05:37:48;;;;;;;79.82;37.67;;;5.60;85.40;;;;;;4938207;29;20791;-68
2022/03/30 05:40:16;;;;;;;75.10;36.87;;;5.70;85.40;;;;;;4937464;29;20486;-68
2022/03/30 05:42:44;;;;;;;79.95;39.25;;;5.70;85.40;;;;;;4937876;29;20047;-68
2022/03/30 05:45:12;;;;;;;78.00;37.72;;;5.70;85.40;;;;;;4941932;29;20051;-68
2022/03/30 05:47:41;;;;;;;77.75;37.80;;;5.80;85.40;;;;;;4956882;29;20058;-68
2022/03/30 05:50:10;;;;;;;78.30;37.17;;;5.80;85.40;;;;;;4956871;29;20042;-69
2022/03/30 05:52:37;;;;;;;71.60;35.08;;;5.80;85.40;;;;;;4953519;29;20054;-68
2022/03/30 05:55:06;;;;;;;73.75;37.08;;;5.80;85.40;;;;;;4950755;29;20044;-68
2022/03/30 05:57:34;;;;;;;70.43;36.42;;;5.80;85.40;;;;;;4936372;29;20051;-68
2022/03/30 06:00:02;;;;;;;71.43;36.13;;;5.90;85.40;;;;;;4937669;29;20409;-68
2022/03/30 06:02:40;;;;;;;69.60;35.53;;;5.90;85.30;;;;;;4937427;29;20051;-68
2022/03/30 06:05:08;;;;;;;65.82;34.30;;;5.90;85.30;;;;;;4941516;29;20047;-68
2022/03/30 06:07:36;;;;;;;69.20;33.90;;;5.90;85.30;;;;;;4955408;29;20516;-68
2022/03/30 06:10:04;;;;;;;64.60;34.90;;;5.90;85.30;;;;;;4950069;29;20059;-68
2022/03/30 06:12:32;;;;;;;64.60;34.55;;;6.00;85.20;;;;;;4942318;29;20513;-69
2022/03/30 06:15:00;;;;;;;62.33;34.53;;;6.00;85.20;;;;;;4950873;29;20508;-68
2022/03/30 06:17:33;;;;;;;63.55;33.33;;;5.90;85.10;;;;;;4943035;29;20522;-67
2022/03/30 06:20:03;;;;;;;75.82;35.13;;;6.00;85.10;;;;;;4952662;29;20055;-68
2022/03/30 06:22:32;;;;;;;66.97;34.20;;;6.00;85.10;;;;;;4955956;29;20069;-69
2022/03/30 06:25:00;;;;;;;59.85;33.13;;;6.00;85.10;;;;;;4952907;28;20059;-68
2022/03/30 06:27:29;;;;;;;64.28;33.55;;;6.00;85.00;;;;;;4955187;29;20043;-68
2022/03/30 06:29:56;;;;;;;66.95;35.28;;;6.00;84.90;;;;;;4944079;29;20055;-68
2022/03/30 06:32:24;;;;;;;63.42;33.97;;;6.10;84.90;;;;;;4943178;29;20036;-68
2022/03/30 06:34:52;;;;;;;66.38;35.50;;;6.10;84.80;;;;;;4946694;29;20531;-67
2022/03/30 06:37:19;;;;;;;66.65;34.20;;;6.20;84.80;;;;;;4942140;29;20409;-67
2022/03/30 06:39:48;;;;;;;70.05;35.88;;;6.20;84.80;;;;;;4937332;29;20064;-68
2022/03/30 06:42:18;;;;;;;58.15;33.30;;;6.30;84.70;;;;;;4951501;29;20404;-67
2022/03/30 06:44:46;;;;;;;67.22;35.15;;;6.30;84.60;;;;;;4951851;29;20054;-67
2022/03/30 06:47:14;;;;;;;68.20;34.85;;;6.30;84.50;;;;;;4951523;29;20047;-68
2022/03/30 06:49:42;;;;;;;68.78;36.08;;;6.30;84.40;;;;;;4955193;29;20044;-67
2022/03/30 06:52:10;;;;;;;68.88;34.85;;;6.30;84.30;;;;;;4955418;29;20413;-68
2022/03/30 06:54:38;;;;;;;63.92;33.47;;;6.30;84.30;;;;;;4949958;29;20417;-67
2022/03/30 06:57:07;;;;;;;65.38;34.65;;;6.40;84.30;;;;;;4953265;29;20051;-68
2022/03/30 06:59:34;;;;;;;67.22;34.85;;;6.40;84.20;;;;;;4938937;29;20055;-68
2022/03/30 07:02:02;;;;;;;63.35;34.58;;;6.50;84.20;;;;;;4950649;29;20062;-68
2022/03/30 07:04:31;;;;;;;67.43;34.90;;;6.50;84.10;;;;;;4955656;29;20066;-68
2022/03/30 07:12:31;;;;;;;61.00;33.42;;;6.70;83.80;;;;;;4953869;29;20039;-68
2022/03/30 07:15:00;;;;;;;61.58;33.53;;;6.70;83.60;;;;;;4954840;29;20039;-68
2022/03/30 07:17:30;;;;;;;59.97;33.40;;;6.70;83.50;;;;;;4940559;29;20058;-68
2022/03/30 07:19:58;;;;;;;65.53;33.92;;;6.70;83.40;;;;;;4948672;29;20054;-68
2022/03/30 07:22:26;;;;;;;57.60;32.10;;;6.80;83.40;;;;;;4935286;29;20486;-68
2022/03/30 07:24:53;;;;;;;58.30;32.22;;;6.80;83.30;;;;;;4954561;29;20055;-68
2022/03/30 07:27:21;;;;;;;60.28;32.45;;;6.80;83.30;;;;;;4941988;29;20043;-68
2022/03/30 07:29:49;;;;;;;58.75;31.90;;;6.80;83.20;;;;;;4947315;28;20066;-68
2022/03/30 07:32:16;;;;;;;65.43;33.55;;;6.80;83.10;;;;;;4947322;29;20055;-68
2022/03/30 07:34:44;;;;;;;60.75;32.63;;;6.80;83.10;;;;;;4952862;29;20043;-68
2022/03/30 07:37:12;;;;;;;59.60;33.47;;;6.90;83.10;;;;;;4951653;29;20490;-68
2022/03/30 07:39:39;;;;;;;59.17;32.90;;;6.90;83.10;;;;;;4954955;29;20048;-68
2022/03/30 07:42:07;;;;;;;56.38;31.90;;;7.10;83.10;;;;;;4954425;29;20051;-68
2022/03/30 07:44:34;;;;;;;66.88;35.38;;;7.10;82.80;;;;;;4941473;29;20062;-68
2022/03/30 07:47:04;;;;;;;65.10;35.70;;;7.10;82.60;;;;;;4954786;29;20074;-70
2022/03/30 07:49:32;;;;;;;61.88;34.05;;;7.10;82.50;;;;;;4954216;28;20070;-69
2022/03/30 07:52:03;;;;;;;61.70;33.85;;;7.20;82.50;;;;;;4953663;28;20055;-68
2022/03/30 07:54:31;;;;;;;63.92;34.65;;;7.20;82.40;;;;;;4935399;29;20055;-68
2022/03/30 07:56:58;;;;;;;66.35;33.33;;;7.20;82.20;;;;;;4935938;29;20051;-69
2022/03/30 07:59:26;;;;;;;59.55;32.65;;;7.30;82.10;;;;;;4935835;29;20063;-68
2022/03/30 08:01:54;;;;;;;57.30;32.20;;;7.30;81.90;;;;;;4935381;29;20059;-68
2022/03/30 08:04:22;;;;;;;61.83;32.38;;;7.30;81.90;;;;;;4953484;29;20047;-68
2022/03/30 08:06:51;;;;;;;54.55;29.08;;;7.30;81.90;;;;;;4953332;29;20050;-68
2022/03/30 08:09:19;;;;;;;52.10;30.40;;;7.30;81.80;;;;;;4937963;29;20055;-67
2022/03/30 08:11:47;;;;;;;49.83;28.80;;;7.40;81.50;;;;;;4935371;29;20374;-67
2022/03/30 08:14:14;;;;;;;46.30;27.45;;;7.50;81.50;;;;;;4952393;29;20512;-68
2022/03/30 08:16:42;;;;;;;42.83;25.92;;;7.60;81.30;;;;;;4954345;29;20058;-67
2022/03/30 08:19:09;;;;;;;44.90;25.92;;;7.70;81.00;;;;;;4953318;29;20051;-70
2022/03/30 08:24:24;;;;;;;41.22;25.65;;;8.00;79.90;;;;;;4953469;29;20051;-68
2022/03/30 08:26:51;;;;;;;51.85;27.13;;;8.10;79.60;;;;;;4954122;29;20043;-70
2022/03/30 08:29:19;;;;;;;40.22;25.05;;;8.20;79.40;;;;;;4953974;29;20064;-68
2022/03/30 08:31:52;;;;;;;39.33;24.23;;;8.30;79.10;;;;;;4947496;29;20047;-68
2022/03/30 08:34:20;;;;;;;45.60;25.17;;;8.50;78.80;;;;;;4952069;29;20058;-68
2022/03/30 08:36:48;;;;;;;44.58;24.88;;;8.60;78.60;;;;;;4954238;29;20069;-69
2022/03/30 08:39:15;;;;;;;45.28;24.13;;;8.80;78.10;;;;;;4954134;29;20397;-68
2022/03/30 08:41:45;;;;;;;42.85;24.67;;;8.80;77.40;;;;;;4952016;29;20062;-68
2022/03/30 08:44:16;;;;;;;49.33;24.88;;;8.80;77.20;;;;;;4939171;29;20059;-68
2022/03/30 08:46:47;;;;;;;43.45;26.27;;;8.70;77.10;;;;;;4937489;29;20043;-68
2022/03/30 08:49:16;;;;;;;42.95;24.33;;;8.50;77.10;;;;;;4967506;28;20059;-68
2022/03/30 08:51:47;;;;;;;45.78;26.20;;;8.40;77.00;;;;;;4953934;29;20047;-68
2022/03/30 08:54:16;;;;;;;45.70;26.25;;;8.30;77.10;;;;;;4938034;29;20059;-68
2022/03/30 08:56:45;;;;;;;40.97;26.42;;;8.30;77.10;;;;;;4935872;29;20047;-68
2022/03/30 08:59:20;;;;;;;51.20;26.95;;;8.20;77.30;;;;;;4934985;29;20485;-68
2022/03/30 09:01:49;;;;;;;50.53;27.13;;;8.10;77.20;;;;;;4937231;29;20066;-68
2022/03/30 09:04:19;;;;;;;49.47;27.60;;;8.00;77.10;;;;;;4937960;29;20062;-68
2022/03/30 09:06:48;;;;;;;41.38;26.38;;;7.90;77.20;;;;;;4937999;29;20156;-68
2022/03/30 09:09:26;;;;;;;53.08;27.73;;;7.80;77.40;;;;;;4945072;29;20042;-67
2022/03/30 09:11:55;;;;;;;49.53;27.63;;;7.80;77.30;;;;;;4956504;29;20109;-68
2022/03/30 09:14:26;;;;;;;47.40;27.85;;;7.80;77.50;;;;;;4957502;29;20504;-68
2022/03/30 09:16:56;;;;;;;46.58;26.80;;;7.70;77.60;;;;;;4955844;29;20047;-69
2022/03/30 09:19:24;;;;;;;49.55;26.25;;;7.70;77.60;;;;;;4957174;29;20054;-68
2022/03/30 09:21:59;;;;;;;48.95;26.88;;;7.60;77.70;;;;;;4957550;29;20055;-68
2022/03/30 09:24:35;;;;;;;50.08;26.63;;;7.60;77.70;;;;;;4938963;29;20050;-68
2022/03/30 09:27:05;;;;;;;46.78;27.02;;;7.60;77.90;;;;;;4938171;29;20052;-68
2022/03/30 09:29:36;;;;;;;46.65;28.33;;;7.60;77.90;;;;;;4937017;29;20054;-68
2022/03/30 09:32:23;;;;;;;55.75;30.73;;;7.60;77.80;;;;;;4938903;29;20367;-68
2022/03/30 09:34:53;;;;;;;58.35;30.15;;;7.60;77.90;;;;;;4937398;29;20048;-69
2022/03/30 09:37:21;;;;;;;50.92;28.38;;;7.60;77.80;;;;;;4936931;29;20502;-68
2022/03/30 09:39:49;;;;;;;49.70;28.92;;;7.70;77.90;;;;;;4953252;29;20066;-69
2022/03/30 09:42:18;;;;;;;52.30;29.60;;;7.70;78.00;;;;;;4956062;29;20051;-69
2022/03/30 09:44:47;;;;;;;49.67;28.38;;;7.70;78.10;;;;;;4943573;29;20504;-70
2022/03/30 09:47:15;;;;;;;44.83;27.23;;;7.70;78.20;;;;;;4956866;29;20058;-68
2022/03/30 09:49:45;;;;;;;36.35;22.63;;;7.60;78.30;;;;;;4951693;28;20052;-68
2022/03/30 09:52:16;;;;;;;24.90;15.60;;;7.50;78.60;;;;;;4947852;29;20059;-68
2022/03/30 09:54:49;;;;;;;19.65;11.45;;;7.30;78.80;;;;;;4949341;29;20059;-69
2022/03/30 09:57:24;;;;;;;15.85;10.25;;;7.20;79.00;;;;;;4948648;29;20386;-69
2022/03/30 10:00:09;;;;;;;15.60;9.50;;;7.10;79.00;;;;;;4944812;29;20047;-68
2022/03/30 10:02:49;;;;;;;16.88;9.95;;;6.90;79.00;;;;;;4951957;29;20052;-68
2022/03/30 10:05:23;;;;;;;16.95;10.52;;;6.90;79.10;;;;;;4940472;29;20048;-69
2022/03/30 10:07:52;;;;;;;20.42;10.60;;;6.90;79.10;;;;;;4948897;29;20420;-68
2022/03/30 10:10:20;;;;;;;16.88;10.68;;;6.90;79.10;;;;;;4939305;29;20518;-68
2022/03/30 10:12:49;;;;;;;16.67;11.55;;;6.90;79.00;;;;;;4953242;28;20054;-68
2022/03/30 10:15:17;;;;;;;19.67;12.38;;;6.90;78.90;;;;;;4956332;29;20047;-68
2022/03/30 10:17:44;;;;;;;17.05;12.07;;;6.90;78.80;;;;;;4956393;29;20047;-68
2022/03/30 10:20:12;;;;;;;20.67;14.18;;;6.80;78.80;;;;;;4953289;29;20043;-68
2022/03/30 10:23:10;;;;;;;19.23;13.23;;;6.80;78.70;;;;;;4945772;29;20055;-68
2022/03/30 10:26:18;;;;;;;17.88;12.15;;;6.80;78.50;;;;;;4937175;29;20513;-69
2022/03/30 10:28:55;;;;;;;15.80;11.15;;;6.70;78.20;;;;;;4937263;29;20044;-68
2022/03/30 10:31:25;;;;;;;15.38;11.05;;;6.60;77.80;;;;;;4948779;29;20044;-69
2022/03/30 10:33:54;;;;;;;14.32;9.63;;;6.70;78.00;;;;;;4940851;29;20062;-69
2022/03/30 10:36:32;;;;;;;11.70;8.93;;;6.70;77.80;;;;;;4954255;29;20054;-69
2022/03/30 10:39:15;;;;;;;12.43;7.90;;;6.80;77.30;;;;;;4949840;29;20039;-69
2022/03/30 10:42:13;;;;;;;7.75;5.97;;;6.80;77.20;;;;;;4946079;28;20062;-69
2022/03/30 10:44:53;;;;;;;7.13;4.95;;;6.80;76.80;;;;;;4949993;29;20404;-68
2022/03/30 10:47:26;;;;;;;10.88;4.55;;;6.80;76.50;;;;;;4946618;29;20052;-69
2022/03/30 10:49:56;;;;;;;7.95;4.50;;;6.70;76.30;;;;;;4953354;29;20432;-69
2022/03/30 10:52:32;;;;;;;6.05;4.38;;;6.70;76.40;;;;;;4942015;28;20052;-68
2022/03/30 10:55:25;;;;;;;3.05;2.60;;;6.70;76.50;;;;;;4946822;28;20054;-69
2022/03/30 10:57:55;;;;;;;2.50;2.17;;;6.70;76.50;;;;;;4939735;29;20079;-69
2022/03/30 11:00:34;;;;;;;2.55;1.73;;;6.70;76.40;;;;;;4941888;29;20068;-69
2022/03/30 11:03:16;;;;;;;2.45;1.90;;;6.70;76.20;;;;;;4946132;29;20052;-69
2022/03/30 11:05:57;;;;;;;2.13;1.60;;;6.60;76.10;;;;;;4944714;29;20070;-69
2022/03/30 11:08:34;;;;;;;2.35;1.67;;;6.60;75.90;;;;;;4939123;29;20465;-69
2022/03/30 11:11:20;;;;;;;2.25;1.50;;;6.60;75.90;;;;;;4951596;29;20051;-69
2022/03/30 11:13:48;;;;;;;3.47;1.60;;;6.60;76.00;;;;;;4943348;29;20059;-69
2022/03/30 11:16:16;;;;;;;3.47;1.50;;;6.60;75.90;;;;;;4945612;29;20039;-69
2022/03/30 11:19:02;;;;;;;2.38;1.40;;;6.60;75.80;;;;;;4934242;29;20089;-69
2022/03/30 11:21:31;;;;;;;1.35;0.90;;;6.60;75.90;;;;;;4939705;29;20051;-69
2022/03/30 11:24:03;;;;;;;1.52;1.23;;;6.50;75.90;;;;;;4936721;29;20047;-69
2022/03/30 11:26:48;;;;;;;2.05;1.20;;;6.50;75.80;;;;;;4919484;29;20052;-69
2022/03/30 11:29:41;;;;;;;1.75;1.30;;;6.50;75.80;;;;;;4935816;29;20525;-69
2022/03/30 11:32:23;;;;;;;2.33;1.33;;;6.40;75.70;;;;;;4935982;29;20059;-68
2022/03/30 11:34:59;;;;;;;3.65;1.42;;;6.30;75.70;;;;;;4952228;29;20051;-68
2022/03/30 11:37:30;;;;;;;1.98;1.40;;;6.30;75.70;;;;;;4953721;29;20047;-68
2022/03/30 11:40:04;;;;;;;1.73;1.42;;;6.30;75.80;;;;;;4954679;29;20043;-68
2022/03/30 11:42:41;;;;;;;1.75;1.40;;;6.30;75.90;;;;;;4953881;28;20063;-69
2022/03/30 11:45:21;;;;;;;1.95;1.45;;;6.40;76.00;;;;;;4953002;29;20043;-68
2022/03/30 11:47:58;;;;;;;2.45;1.42;;;6.40;76.00;;;;;;4947803;29;20051;-68
2022/03/30 11:50:32;;;;;;;3.00;1.58;;;6.50;76.00;;;;;;4939210;29;20374;-69
2022/03/30 11:53:21;;;;;;;3.28;1.80;;;6.50;76.00;;;;;;4935911;29;20478;-70
2022/03/30 11:55:53;;;;;;;2.60;1.48;;;6.50;76.10;;;;;;4940610;29;20043;-69
2022/03/30 11:58:34;;;;;;;1.92;1.65;;;6.60;76.10;;;;;;4942075;29;20051;-69
2022/03/30 12:01:07;;;;;;;1.60;1.50;;;6.60;76.10;;;;;;4941710;29;20047;-69
2022/03/30 12:03:36;;;;;;;1.80;1.67;;;6.60;76.10;;;;;;4940557;29;20051;-69
2022/03/30 12:06:06;;;;;;;2.30;1.77;;;6.60;76.00;;;;;;4948883;29;20512;-70
2022/03/30 12:08:41;;;;;;;1.45;1.33;;;6.60;76.10;;;;;;4948385;29;20051;-69
2022/03/30 12:11:09;;;;;;;1.40;1.20;;;6.60;76.20;;;;;;4918178;29;20074;-69
2022/03/30 12:13:37;;;;;;;1.20;1.10;;;6.60;76.00;;;;;;4934989;29;20062;-70
2022/03/30 12:16:09;;;;;;;1.70;1.40;;;6.60;75.90;;;;;;4944460;29;20040;-69
2022/03/30 12:19:10;;;;;;;3.53;1.40;;;6.60;76.00;;;;;;4950683;29;20055;-68
2022/03/30 12:21:38;;;;;;;1.42;1.15;;;6.60;76.00;;;;;;4922831;29;20505;-68
2022/03/30 12:24:10;;;;;;;1.52;1.30;;;6.60;76.00;;;;;;4939122;29;20059;-69
2022/03/30 12:26:58;;;;;;;1.70;1.60;;;6.70;76.00;;;;;;4933684;29;20054;-69
2022/03/30 12:29:31;;;;;;;1.55;1.40;;;6.70;76.10;;;;;;4942534;29;20053;-69
2022/03/30 12:32:02;;;;;;;1.35;1.25;;;6.80;76.00;;;;;;4936387;29;20046;-69
2022/03/30 12:34:33;;;;;;;1.63;1.27;;;6.80;75.80;;;;;;4937146;29;20059;-69
2022/03/30 12:37:07;;;;;;;2.40;1.33;;;6.80;75.70;;;;;;4937549;29;20063;-68
2022/03/30 12:39:43;;;;;;;1.88;1.38;;;6.80;75.60;;;;;;4934172;29;20058;-68
2022/03/30 12:42:17;;;;;;;2.42;1.48;;;6.80;75.10;;;;;;4934172;29;20058;-68
2022/03/30 12:44:56;;;;;;;1.90;1.77;;;6.80;75.00;;;;;;4934129;29;20478;-68
2022/03/30 12:47:30;;;;;;;3.55;1.80;;;6.70;75.00;;;;;;4934725;29;20082;-68
2022/03/30 12:50:03;;;;;;;2.42;1.48;;;6.70;75.10;;;;;;4934013;29;20405;-69
2022/03/30 12:52:35;;;;;;;;;;;6.70;75.00;;;;;;4922071;29;20039;-68
2022/03/30 12:55:32;;;;;;;2.28;1.80;;;6.70;74.90;;;;;;4934084;29;19933;-68
2022/03/30 12:58:16;;;;;;;2.33;2.00;;;6.70;75.00;;;;;;4933813;29;20455;-68
2022/03/30 13:00:46;;;;;;;3.90;1.80;;;6.70;75.00;;;;;;4934353;29;20052;-68
2022/03/30 13:03:15;;;;;;;2.17;1.98;;;6.70;75.10;;;;;;4934239;29;20054;-68
2022/03/30 13:06:04;;;;;;;2.47;2.00;;;6.80;74.80;;;;;;4933098;29;20113;-68
2022/03/30 13:08:31;;;;;;;2.42;2.15;;;6.90;74.70;;;;;;4934051;29;20058;-68